createdAt,value
2023-05-17T00:01:56.681Z,8.94
2023-05-17T00:04:23.916Z,9.04
2023-05-17T00:06:51.036Z,8.94
2023-05-17T00:09:18.125Z,8.98
2023-05-17T00:11:45.326Z,8.90
2023-05-17T00:14:12.680Z,8.79
2023-05-17T00:16:42.912Z,8.87
2023-05-17T00:19:10.100Z,8.87
2023-05-17T00:21:38.156Z,8.79
2023-05-17T00:24:05.803Z,8.76
2023-05-17T00:26:33.968Z,8.71
2023-05-17T00:29:01.480Z,8.63
2023-05-17T00:31:28.558Z,8.68
2023-05-17T00:33:55.813Z,8.74
2023-05-17T00:36:23.147Z,8.79
2023-05-17T00:38:50.326Z,8.86
2023-05-17T00:41:18.411Z,8.69
2023-05-17T00:43:45.821Z,8.65
2023-05-17T00:46:13.280Z,8.71
2023-05-17T00:48:41.030Z,8.73
2023-05-17T00:51:08.547Z,8.70
2023-05-17T00:53:37.480Z,8.67
2023-05-17T00:56:05.732Z,8.70
2023-05-17T00:58:34.149Z,8.65
2023-05-17T01:01:02.149Z,8.60
2023-05-17T01:03:29.771Z,8.66
2023-05-17T01:05:57.276Z,8.61
2023-05-17T01:08:24.853Z,8.58
2023-05-17T01:11:11.781Z,8.54
2023-05-17T01:14:01.493Z,8.55
2023-05-17T01:16:37.302Z,8.60
2023-05-17T01:19:51.171Z,8.61
2023-05-17T01:22:48.188Z,8.61
2023-05-17T01:25:40.040Z,8.53
2023-05-17T01:28:11.665Z,8.57
2023-05-17T01:30:40.345Z,8.52
2023-05-17T01:33:09.530Z,8.50
2023-05-17T01:35:37.343Z,8.46
2023-05-17T01:38:04.758Z,8.52
2023-05-17T01:40:37.276Z,8.49
2023-05-17T01:44:15.516Z,8.47
2023-05-17T01:46:44.291Z,8.46
2023-05-17T01:49:31.297Z,8.41
2023-05-17T01:52:09.591Z,8.35
2023-05-17T01:54:48.169Z,8.39
2023-05-17T01:57:16.875Z,8.39
2023-05-17T01:59:45.849Z,8.34
2023-05-17T02:02:14.100Z,8.29
2023-05-17T02:04:41.372Z,8.27
2023-05-17T02:07:08.485Z,8.23
2023-05-17T02:09:35.563Z,8.15
2023-05-17T02:12:02.665Z,8.12
2023-05-17T02:14:30.216Z,8.24
2023-05-17T02:16:57.803Z,8.09
2023-05-17T02:19:24.969Z,8.09
2023-05-17T02:21:52.090Z,8.01
2023-05-17T02:24:20.179Z,8.03
2023-05-17T02:26:48.678Z,7.83
2023-05-17T02:29:15.773Z,7.81
2023-05-17T02:31:42.820Z,7.89
2023-05-17T02:34:09.822Z,7.79
2023-05-17T02:36:36.902Z,7.92
2023-05-17T02:39:04.214Z,7.76
2023-05-17T02:41:31.640Z,7.73
2023-05-17T02:43:58.686Z,7.63
2023-05-17T02:46:26.226Z,7.70
2023-05-17T02:48:53.302Z,7.56
2023-05-17T02:51:20.416Z,7.65
2023-05-17T02:53:47.832Z,7.59
2023-05-17T02:56:14.876Z,7.46
2023-05-17T02:58:42.289Z,7.61
2023-05-17T03:01:09.759Z,7.60
2023-05-17T03:03:37.401Z,7.55
2023-05-17T03:06:05.152Z,7.56
2023-05-17T03:08:32.614Z,7.57
2023-05-17T03:10:59.697Z,7.50
2023-05-17T03:13:26.745Z,7.45
2023-05-17T03:15:53.793Z,7.40
2023-05-17T03:18:20.926Z,7.36
2023-05-17T03:20:48.015Z,7.28
2023-05-17T03:23:15.090Z,7.32
2023-05-17T03:25:42.165Z,7.29
2023-05-17T03:28:09.251Z,7.13
2023-05-17T03:30:36.435Z,7.07
2023-05-17T03:33:03.655Z,7.00
2023-05-17T03:35:31.085Z,7.00
2023-05-17T03:37:58.450Z,7.02
2023-05-17T03:40:26.130Z,6.99
2023-05-17T03:42:54.273Z,6.93
2023-05-17T03:45:21.331Z,6.89
2023-05-17T03:47:48.414Z,6.97
2023-05-17T03:50:15.589Z,7.02
2023-05-17T03:52:42.745Z,7.06
2023-05-17T03:55:10.050Z,7.08
2023-05-17T03:57:37.152Z,7.10
2023-05-17T04:00:09.288Z,7.15
2023-05-17T04:02:36.730Z,7.06
2023-05-17T04:05:04.221Z,7.13
2023-05-17T04:07:31.650Z,7.12
2023-05-17T04:10:03.084Z,7.05
2023-05-17T04:12:30.188Z,7.04
2023-05-17T04:14:57.243Z,7.06
2023-05-17T04:17:24.855Z,7.08
2023-05-17T04:19:52.105Z,7.05
2023-05-17T04:22:22.345Z,7.05
2023-05-17T04:24:49.751Z,7.14
2023-05-17T04:27:17.153Z,7.15
2023-05-17T04:29:44.300Z,7.16
2023-05-17T04:32:11.768Z,7.26
2023-05-17T04:34:39.228Z,7.29
2023-05-17T04:37:07.166Z,7.32
2023-05-17T04:39:34.695Z,7.30
2023-05-17T04:42:02.469Z,7.27
2023-05-17T04:44:30.048Z,7.33
2023-05-17T04:46:57.544Z,7.42
2023-05-17T04:49:25.337Z,7.50
2023-05-17T04:51:52.985Z,7.48
2023-05-17T04:54:21.136Z,7.50
2023-05-17T04:56:48.584Z,7.57
2023-05-17T04:59:15.573Z,7.63
2023-05-17T05:01:42.713Z,8.03
2023-05-17T05:04:10.213Z,7.93
2023-05-17T05:06:37.332Z,7.94
2023-05-17T05:09:04.680Z,8.00
2023-05-17T05:11:32.343Z,8.09
2023-05-17T05:13:59.456Z,8.20
2023-05-17T05:16:27.031Z,8.28
2023-05-17T05:18:54.284Z,8.37
2023-05-17T05:21:21.605Z,8.41
2023-05-17T05:23:48.625Z,8.45
2023-05-17T05:26:16.076Z,8.57
2023-05-17T05:28:43.357Z,8.67
2023-05-17T05:31:10.507Z,8.84
2023-05-17T05:33:37.641Z,8.93
2023-05-17T05:36:05.321Z,9.02
2023-05-17T05:38:32.678Z,8.98
2023-05-17T05:40:59.716Z,9.01
2023-05-17T05:43:27.442Z,8.96
2023-05-17T05:45:54.527Z,8.95
2023-05-17T05:48:21.740Z,9.03
2023-05-17T05:50:48.835Z,9.25
2023-05-17T05:53:19.460Z,9.33
2023-05-17T05:55:47.247Z,9.47
2023-05-17T05:58:14.670Z,9.62
2023-05-17T06:00:41.781Z,9.71
2023-05-17T06:03:09.018Z,9.78
2023-05-17T06:05:38.980Z,9.99
2023-05-17T06:08:06.924Z,10.05
2023-05-17T06:10:34.449Z,10.12
2023-05-17T06:13:03.985Z,10.12
2023-05-17T06:15:32.969Z,10.16
2023-05-17T06:18:00.365Z,10.25
2023-05-17T06:20:34.074Z,10.26
2023-05-17T06:23:02.055Z,10.59
2023-05-17T06:25:29.174Z,10.56
2023-05-17T06:27:56.332Z,10.67
2023-05-17T06:30:23.481Z,10.88
2023-05-17T06:32:50.756Z,10.88
2023-05-17T06:35:18.132Z,10.99
2023-05-17T06:37:45.227Z,10.97
2023-05-17T06:40:16.569Z,11.01
2023-05-17T06:42:44.561Z,11.21
2023-05-17T06:45:12.208Z,10.97
2023-05-17T06:47:39.556Z,11.15
2023-05-17T06:50:08.802Z,11.13
2023-05-17T06:52:36.470Z,11.12
2023-05-17T06:55:04.120Z,11.32
2023-05-17T06:57:31.282Z,11.31
2023-05-17T06:59:58.432Z,11.42
2023-05-17T07:02:25.714Z,11.64
2023-05-17T07:04:53.388Z,11.81
2023-05-17T07:07:20.668Z,12.00
2023-05-17T07:09:47.890Z,11.91
2023-05-17T07:12:14.976Z,11.92
2023-05-17T07:14:42.024Z,11.83
2023-05-17T07:17:10.785Z,11.83
2023-05-17T07:19:37.915Z,11.99
2023-05-17T07:22:05.609Z,11.84
2023-05-17T07:24:35.169Z,12.04
2023-05-17T07:27:02.504Z,12.13
2023-05-17T07:29:29.712Z,12.15
2023-05-17T07:31:56.781Z,11.92
2023-05-17T07:34:23.932Z,11.62
2023-05-17T07:36:51.024Z,11.68
2023-05-17T07:39:18.561Z,11.67
2023-05-17T07:41:45.736Z,11.83
2023-05-17T07:44:12.799Z,11.94
2023-05-17T07:46:40.085Z,11.89
2023-05-17T07:49:07.360Z,11.71
2023-05-17T07:51:36.253Z,12.04
2023-05-17T07:54:03.447Z,12.03
2023-05-17T07:56:33.293Z,12.14
2023-05-17T07:59:00.677Z,12.20
2023-05-17T08:01:27.954Z,12.83
2023-05-17T08:03:55.389Z,12.98
2023-05-17T08:06:22.569Z,13.29
2023-05-17T08:08:49.706Z,13.20
2023-05-17T08:11:18.134Z,13.11
2023-05-17T08:13:45.721Z,12.52
2023-05-17T08:16:14.658Z,12.89
2023-05-17T08:18:45.581Z,12.81
2023-05-17T08:21:12.853Z,13.35
2023-05-17T08:23:42.031Z,13.34
2023-05-17T08:26:09.403Z,13.42
2023-05-17T08:28:36.602Z,13.24
2023-05-17T08:31:04.416Z,13.32
2023-05-17T08:33:34.107Z,13.56
2023-05-17T08:36:03.077Z,14.30
2023-05-17T08:38:30.341Z,14.50
2023-05-17T08:41:00.015Z,14.16
2023-05-17T08:43:28.117Z,13.98
2023-05-17T08:45:59.328Z,13.70
2023-05-17T08:48:27.773Z,13.23
2023-05-17T08:50:58.368Z,13.70
2023-05-17T08:53:26.838Z,14.12
2023-05-17T08:56:00.584Z,14.26
2023-05-17T08:58:44.732Z,15.05
2023-05-17T09:01:25.239Z,14.17
2023-05-17T09:03:54.034Z,14.50
2023-05-17T09:06:22.838Z,14.24
2023-05-17T09:08:55.285Z,14.15
2023-05-17T09:11:33.352Z,13.67
2023-05-17T09:14:03.301Z,13.52
2023-05-17T09:16:31.458Z,13.54
2023-05-17T09:19:00.126Z,13.58
2023-05-17T09:21:31.089Z,13.68
2023-05-17T09:24:07.113Z,13.97
2023-05-17T09:26:44.865Z,13.84
2023-05-17T09:29:15.219Z,13.94
2023-05-17T09:31:43.759Z,14.35
2023-05-17T09:34:11.665Z,14.33
2023-05-17T09:36:42.938Z,14.20
2023-05-17T09:39:13.452Z,14.17
2023-05-17T09:41:50.087Z,14.12
2023-05-17T09:44:17.378Z,14.02
2023-05-17T09:46:48.977Z,13.90
2023-05-17T09:49:17.843Z,13.51
2023-05-17T09:51:48.251Z,13.54
2023-05-17T09:54:15.663Z,13.61
2023-05-17T09:56:43.406Z,13.69
2023-05-17T09:59:17.165Z,14.09
2023-05-17T10:01:46.214Z,13.75
2023-05-17T10:04:14.487Z,14.13
2023-05-17T10:06:50.765Z,14.37
2023-05-17T10:09:22.739Z,14.45
2023-05-17T10:11:53.196Z,14.22
2023-05-17T10:14:33.185Z,14.36
2023-05-17T10:17:03.303Z,14.33
2023-05-17T10:19:31.497Z,14.56
2023-05-17T10:22:08.233Z,14.43
2023-05-17T10:24:48.377Z,14.52
2023-05-17T10:27:16.398Z,14.75
2023-05-17T10:29:47.686Z,14.91
2023-05-17T10:32:17.460Z,15.45
2023-05-17T10:34:47.417Z,15.34
2023-05-17T10:37:20.172Z,15.89
2023-05-17T10:39:49.041Z,16.14
2023-05-17T10:42:17.840Z,15.76
2023-05-17T10:44:46.412Z,15.71
2023-05-17T10:47:15.510Z,15.33
2023-05-17T10:49:48.079Z,15.37
2023-05-17T10:52:23.835Z,15.15
2023-05-17T10:54:52.019Z,15.60
2023-05-17T11:00:10.504Z,15.61
2023-05-17T11:02:43.271Z,15.83
2023-05-17T11:05:27.634Z,16.24
2023-05-17T11:08:17.410Z,15.73
2023-05-17T11:11:18.270Z,15.21
2023-05-17T11:13:52.185Z,15.20
2023-05-17T11:16:27.633Z,16.22
2023-05-17T11:18:58.390Z,17.00
2023-05-17T11:21:30.349Z,16.77
2023-05-17T11:24:06.495Z,17.12
2023-05-17T11:26:42.129Z,16.96
2023-05-17T11:29:10.902Z,17.48
2023-05-17T11:31:46.108Z,18.27
2023-05-17T11:34:13.518Z,17.47
2023-05-17T11:36:55.214Z,16.74
2023-05-17T11:39:25.533Z,16.95
2023-05-17T11:41:57.460Z,17.52
2023-05-17T11:44:35.075Z,17.46
2023-05-17T11:47:09.542Z,17.11
2023-05-17T11:49:40.903Z,17.07
2023-05-17T11:52:09.005Z,17.05
2023-05-17T11:54:40.838Z,16.98
2023-05-17T11:57:09.760Z,17.08
2023-05-17T11:59:40.496Z,17.19
2023-05-17T12:02:08.030Z,17.32
2023-05-17T12:04:39.829Z,16.67
2023-05-17T12:07:11.063Z,16.92
2023-05-17T12:09:40.479Z,16.46
2023-05-17T12:12:08.774Z,16.96
2023-05-17T12:14:36.259Z,17.75
2023-05-17T12:17:08.114Z,18.16
2023-05-17T12:19:35.609Z,18.81
2023-05-17T12:22:13.937Z,18.42
2023-05-17T12:24:44.334Z,17.53
2023-05-17T12:27:11.648Z,17.56
2023-05-17T12:29:40.238Z,17.76
2023-05-17T12:32:10.503Z,17.50
2023-05-17T12:34:38.156Z,17.73
2023-05-17T12:37:10.795Z,17.45
2023-05-17T12:39:38.444Z,18.25
2023-05-17T12:42:06.762Z,17.30
2023-05-17T12:44:34.175Z,17.53
2023-05-17T12:47:03.587Z,17.05
2023-05-17T12:49:31.308Z,17.57
2023-05-17T12:52:05.600Z,18.09
2023-05-17T12:54:33.803Z,18.06
2023-05-17T12:57:13.024Z,18.03
2023-05-17T12:59:52.658Z,17.91
2023-05-17T13:02:20.864Z,18.87
2023-05-17T13:04:48.831Z,19.01
2023-05-17T13:07:24.384Z,18.23
2023-05-17T13:09:52.217Z,18.53
2023-05-17T13:12:24.642Z,19.13
2023-05-17T13:14:54.824Z,18.44
2023-05-17T13:17:37.341Z,18.10
2023-05-17T13:20:07.222Z,18.50
2023-05-17T13:22:38.268Z,18.77
2023-05-17T13:25:06.659Z,18.50
2023-05-17T13:27:34.754Z,19.18
2023-05-17T13:30:02.738Z,19.36
2023-05-17T13:32:30.738Z,19.14
2023-05-17T13:34:57.838Z,19.42
2023-05-17T13:37:24.922Z,19.37
2023-05-17T13:39:54.838Z,19.08
2023-05-17T13:42:23.044Z,17.83
2023-05-17T13:44:50.771Z,18.57
2023-05-17T13:47:18.319Z,19.76
2023-05-17T13:49:45.368Z,19.93
2023-05-17T13:52:13.417Z,19.21
2023-05-17T13:54:40.888Z,20.00
2023-05-17T13:57:08.160Z,19.65
2023-05-17T13:59:35.462Z,20.62
2023-05-17T14:02:04.259Z,19.70
2023-05-17T14:04:31.677Z,18.98
2023-05-17T14:06:58.765Z,19.41
2023-05-17T14:09:25.814Z,19.32
2023-05-17T14:11:52.997Z,20.50
2023-05-17T14:14:20.183Z,20.74
2023-05-17T14:16:47.423Z,21.07
2023-05-17T14:19:14.586Z,21.52
2023-05-17T14:21:41.764Z,20.16
2023-05-17T14:24:09.008Z,20.64
2023-05-17T14:26:36.864Z,21.18
2023-05-17T14:29:05.730Z,20.84
2023-05-17T14:31:33.288Z,21.19
2023-05-17T14:34:03.304Z,19.47
2023-05-17T14:36:30.520Z,21.27
2023-05-17T14:38:57.732Z,21.54
2023-05-17T14:41:24.841Z,20.81
2023-05-17T14:43:51.862Z,20.83
2023-05-17T14:46:19.757Z,20.86
2023-05-17T14:48:47.012Z,21.25
2023-05-17T14:51:14.221Z,20.99
2023-05-17T14:53:41.353Z,21.52
2023-05-17T14:56:08.441Z,21.65
2023-05-17T14:58:35.940Z,20.11
2023-05-17T15:01:05.713Z,20.86
2023-05-17T15:03:35.047Z,20.84
2023-05-17T15:06:06.809Z,20.74
2023-05-17T15:08:35.306Z,21.39
2023-05-17T15:11:02.447Z,21.32
2023-05-17T15:13:29.592Z,21.34
2023-05-17T15:15:56.686Z,22.17
2023-05-17T15:18:24.132Z,21.38
2023-05-17T15:20:51.263Z,21.36
2023-05-17T15:23:18.373Z,21.29
2023-05-17T15:25:45.673Z,21.80
2023-05-17T15:28:13.234Z,21.13
2023-05-17T15:30:42.005Z,21.22
2023-05-17T15:33:09.696Z,21.87
2023-05-17T15:35:41.452Z,21.78
2023-05-17T15:38:08.520Z,21.89
2023-05-17T15:40:35.606Z,21.73
2023-05-17T15:43:03.145Z,21.25
2023-05-17T15:45:30.753Z,21.45
2023-05-17T15:47:58.417Z,22.18
2023-05-17T15:50:25.800Z,21.71
2023-05-17T15:52:52.899Z,21.57
2023-05-17T15:55:19.991Z,21.49
2023-05-17T15:57:47.359Z,21.42
2023-05-17T16:00:14.869Z,21.57
2023-05-17T16:02:42.178Z,21.87
2023-05-17T16:05:10.003Z,21.65
2023-05-17T16:07:37.082Z,21.33
2023-05-17T16:10:04.557Z,21.09
2023-05-17T16:12:32.191Z,21.19
2023-05-17T16:14:59.249Z,21.02
2023-05-17T16:17:27.215Z,21.01
2023-05-17T16:19:54.636Z,20.85
2023-05-17T16:22:22.181Z,21.06
2023-05-17T16:24:53.980Z,21.55
2023-05-17T16:27:22.002Z,20.93
2023-05-17T16:29:49.189Z,21.16
2023-05-17T16:32:16.382Z,20.46
2023-05-17T16:34:43.708Z,20.47
2023-05-17T16:37:11.226Z,20.23
2023-05-17T16:39:38.430Z,20.33
2023-05-17T16:42:06.203Z,20.12
2023-05-17T16:44:33.452Z,20.60
2023-05-17T16:47:01.177Z,20.08
2023-05-17T16:49:30.324Z,20.09
2023-05-17T16:51:57.461Z,20.45
2023-05-17T16:54:26.467Z,20.41
2023-05-17T16:56:54.204Z,20.48
2023-05-17T16:59:21.981Z,20.21
2023-05-17T17:01:49.524Z,19.93
2023-05-17T17:04:17.406Z,19.98
2023-05-17T17:06:44.998Z,19.45
2023-05-17T17:09:12.320Z,19.46
2023-05-17T17:11:39.925Z,19.22
2023-05-17T17:14:07.709Z,19.52
2023-05-17T17:16:35.352Z,19.45
2023-05-17T17:19:03.839Z,19.32
2023-05-17T17:21:36.662Z,19.58
2023-05-17T17:24:08.091Z,20.12
2023-05-17T17:26:35.939Z,19.06
2023-05-17T17:29:04.393Z,18.75
2023-05-17T17:31:34.722Z,18.63
2023-05-17T17:34:02.481Z,18.74
2023-05-17T17:36:30.512Z,18.71
2023-05-17T17:38:58.196Z,18.95
2023-05-17T17:41:26.321Z,18.49
2023-05-17T17:43:53.464Z,18.45
2023-05-17T17:46:20.658Z,17.96
2023-05-17T17:48:47.843Z,18.06
2023-05-17T17:51:14.993Z,17.80
2023-05-17T17:53:42.087Z,17.82
2023-05-17T17:56:09.285Z,17.62
2023-05-17T17:58:36.701Z,17.68
2023-05-17T18:01:04.114Z,18.26
2023-05-17T18:03:32.722Z,17.57
2023-05-17T18:05:59.924Z,17.43
2023-05-17T18:08:27.409Z,17.67
2023-05-17T18:10:54.724Z,17.25
2023-05-17T18:13:22.278Z,16.76
2023-05-17T18:15:49.422Z,16.99
2023-05-17T18:18:17.004Z,16.68
2023-05-17T18:20:44.119Z,16.66
2023-05-17T18:23:11.347Z,16.63
2023-05-17T18:25:38.595Z,16.65
2023-05-17T18:28:07.384Z,16.54
2023-05-17T18:30:35.979Z,16.40
2023-05-17T18:33:03.822Z,16.17
2023-05-17T18:35:31.406Z,16.22
2023-05-17T18:38:00.146Z,16.18
2023-05-17T18:40:27.989Z,16.14
2023-05-17T18:42:55.278Z,16.44
2023-05-17T18:45:22.562Z,15.76
2023-05-17T18:47:50.292Z,15.40
2023-05-17T18:50:17.976Z,15.62
2023-05-17T18:52:46.962Z,15.77
2023-05-17T18:55:17.430Z,15.76
2023-05-17T18:57:45.135Z,15.52
2023-05-17T19:00:16.319Z,15.05
2023-05-17T19:02:43.993Z,15.23
2023-05-17T19:05:11.853Z,15.28
2023-05-17T19:07:39.290Z,15.07
2023-05-17T19:10:07.725Z,15.06
2023-05-17T19:12:37.093Z,15.48
2023-05-17T19:15:05.268Z,15.26
2023-05-17T19:17:33.183Z,15.32
2023-05-17T19:20:00.817Z,15.25
2023-05-17T19:22:28.009Z,15.09
2023-05-17T19:24:55.258Z,14.83
2023-05-17T19:27:22.509Z,14.28
2023-05-17T19:29:50.075Z,14.43
2023-05-17T19:32:17.909Z,14.54
2023-05-17T19:34:45.435Z,14.21
2023-05-17T19:37:12.717Z,14.32
2023-05-17T19:39:39.884Z,14.49
2023-05-17T19:42:07.451Z,14.11
2023-05-17T19:44:35.463Z,14.22
2023-05-17T19:47:02.866Z,14.18
2023-05-17T19:49:31.110Z,14.09
2023-05-17T19:52:01.436Z,14.09
2023-05-17T19:54:31.571Z,14.23
2023-05-17T19:56:59.761Z,13.86
2023-05-17T19:59:27.624Z,13.15
2023-05-17T20:01:54.916Z,13.17
2023-05-17T20:04:22.053Z,13.03
2023-05-17T20:06:51.083Z,13.02
2023-05-17T20:09:19.048Z,13.00
2023-05-17T20:11:46.332Z,12.88
2023-05-17T20:14:16.375Z,13.12
2023-05-17T20:16:43.548Z,12.88
2023-05-17T20:19:11.125Z,12.46
2023-05-17T20:21:38.432Z,12.58
2023-05-17T20:24:06.895Z,12.57
2023-05-17T20:26:37.804Z,12.64
2023-05-17T20:29:09.556Z,12.47
2023-05-17T20:31:37.367Z,12.18
2023-05-17T20:34:06.550Z,12.16
2023-05-17T20:36:33.809Z,12.16
2023-05-17T20:39:00.957Z,12.04
2023-05-17T20:41:28.069Z,12.08
2023-05-17T20:43:55.307Z,11.94
2023-05-17T20:46:22.498Z,11.84
2023-05-17T20:48:50.037Z,11.85
2023-05-17T20:51:18.251Z,11.84
2023-05-17T20:53:46.496Z,11.82
2023-05-17T20:56:20.469Z,11.74
2023-05-17T20:58:48.847Z,11.87
2023-05-17T21:01:15.978Z,11.50
2023-05-17T21:03:43.895Z,11.61
2023-05-17T21:06:11.122Z,11.52
2023-05-17T21:08:38.566Z,11.39
2023-05-17T21:11:05.794Z,11.39
2023-05-17T21:13:32.850Z,11.30
2023-05-17T21:16:00.199Z,11.36
2023-05-17T21:18:27.362Z,11.09
2023-05-17T21:20:55.318Z,11.11
2023-05-17T21:23:22.767Z,11.25
2023-05-17T21:25:49.890Z,11.01
2023-05-17T21:28:17.171Z,11.10
2023-05-17T21:30:44.306Z,11.13
2023-05-17T21:33:11.499Z,10.98
2023-05-17T21:35:38.684Z,10.84
2023-05-17T21:38:05.734Z,10.80
2023-05-17T21:40:33.211Z,10.76
2023-05-17T21:43:00.402Z,10.79
2023-05-17T21:45:27.481Z,10.68
2023-05-17T21:47:54.535Z,10.67
2023-05-17T21:50:21.766Z,10.60
2023-05-17T21:52:49.078Z,10.53
2023-05-17T21:55:16.338Z,10.41
2023-05-17T21:57:43.370Z,10.46
2023-05-17T22:00:15.489Z,10.29
2023-05-17T22:02:46.721Z,10.07
2023-05-17T22:05:14.279Z,10.26
2023-05-17T22:07:41.525Z,10.06
2023-05-17T22:10:09.919Z,10.20
2023-05-17T22:12:38.231Z,9.88
2023-05-17T22:15:06.431Z,9.87
2023-05-17T22:17:43.136Z,10.01
2023-05-17T22:20:17.023Z,9.88
2023-05-17T22:22:44.618Z,9.90
2023-05-17T22:25:12.086Z,9.84
2023-05-17T22:27:39.110Z,9.94
2023-05-17T22:30:07.782Z,9.85
2023-05-17T22:32:34.940Z,9.73
2023-05-17T22:35:01.987Z,9.72
2023-05-17T22:37:30.387Z,9.63
2023-05-17T22:39:57.399Z,9.74
2023-05-17T22:42:24.477Z,9.55
2023-05-17T22:44:51.884Z,9.42
2023-05-17T22:47:22.828Z,9.39
2023-05-17T22:49:52.716Z,9.29
2023-05-17T22:52:20.148Z,9.39
2023-05-17T22:54:47.377Z,9.32
2023-05-17T22:57:14.699Z,9.27
2023-05-17T22:59:44.197Z,9.16
2023-05-17T23:02:12.497Z,9.27
2023-05-17T23:04:41.241Z,9.17
2023-05-17T23:07:10.234Z,9.25
2023-05-17T23:09:41.031Z,9.04
2023-05-17T23:12:14.272Z,9.05
2023-05-17T23:14:41.563Z,9.18
2023-05-17T23:17:08.690Z,8.99
2023-05-17T23:19:36.063Z,8.99
2023-05-17T23:22:04.131Z,8.97
2023-05-17T23:24:31.636Z,8.89
2023-05-17T23:26:59.123Z,8.97
2023-05-17T23:29:26.651Z,8.91
2023-05-17T23:31:54.049Z,8.92
2023-05-17T23:34:22.143Z,8.77
2023-05-17T23:36:49.188Z,8.85
2023-05-17T23:39:16.262Z,8.86
2023-05-17T23:41:43.708Z,8.83
2023-05-17T23:44:11.203Z,8.75
2023-05-17T23:46:38.353Z,8.87
2023-05-17T23:49:05.950Z,8.77
2023-05-17T23:51:34.922Z,8.74
2023-05-17T23:54:02.438Z,8.73
2023-05-17T23:56:29.568Z,8.65
2023-05-17T23:58:56.682Z,8.70
